Terminal Aerodrome Forecast
Issued by NWS Louisville, KY

Home | Current Version | Previous Version | Text Only | Print | Product List | Glossary On
Versions: 1 2 3 4 5 6 7 8 9 10 11 12 13 14 15 16 17 18 19 20
000
FTUS43 KLMK 261730
TAFLEX
TAF
KLEX 261730Z 2618/2718 23006KT P6SM VCTS SCT040CB BKN250
      TEMPO 2620/2624 VRB10G20KT 3SM -TSRA BR BKN035CB
     FM270000 VRB03KT P6SM SCT250
     FM270600 VRB03KT 4SM BR SCT250
     FM271300 24005KT P6SM SCT040=

USA.gov is the U.S. government's official web portal to all federal, state and local government web resources and services.